Cameron, Texas
Current Conditions -  °F | °C
As of 5:35 AM on Friday 31 Oct 2014 (Local Time) from KT35 Reporting Station
Clear Clear  
Wind Chill: 58°   Ceiling: Unl
Heat Index: 58°   Visibility: 10mi
Dew Point: 55°   Wind: 3mph
Humidity: 88%   Direction: 300°WNW
Pressure: 30.17"   Gusts: NA
Location:  30.85°N, 96.98°W
Report Text: KT35 311035Z AUTO 30003KT 10SM CLR 15/13 A3017 RMK AO2 T01450126
Loading
Personal Weather Stations






























Interactive Weather Map
Tropical Storm Tracking
New forecast layout! Learn more

10-Day Weather Forecast

Advertisements
Track Severe Weather on mobile